Terminal Aerodrome Forecast
Issued by NWS

Home | Current Version | Previous Version | Text Only | Print | Product List | Glossary On
Versions: 1 2 3 4 5 6 7 8 9 10 11 12 13 14 15 16 17 18 19
000
FTUS41 KBTV 041121
TAFSLK
TAF
KSLK 041121Z 0412/0512 25010G20KT P6SM BKN020 OVC025
      TEMPO 0412/0415 BKN015
     FM041500 24013G22KT P6SM SCT020 BKN027
     FM041800 25012G23KT P6SM SCT025 BKN035
     FM050300 25008KT P6SM SCT040 BKN060
     FM051000 30004KT P6SM BKN045 BKN080=

USA.gov is the U.S. government's official web portal to all federal, state and local government web resources and services.